SAAR

Islas Malvinas Airport

Rosario, Argentina
TAF SAAR 230555Z 2306/2406 05005KT CAVOK TX29/2319Z TN21/2406Z BECMG 2307/2309 12015KT 5000 TSRA BKN015 FEW040CB OVC050 TEMPO 2310/2314 1000 +TSRA BECMG 2317/2318 05010KT 9999 SCT010 BKN020 BECMG 2320/2323 CAVOK
Issued Valid From Valid To
Jan-23 @ 05:55 UTC
(2 hours ago)
Jan-23 @ 06:00 UTC
(2 hours ago)
Jan-24 @ 06:00 UTC
(in 22 hours)
Expired Click to View Jan-23 @ 06:00 to Jan-23 @ 07:00
TAF SAAR 230555Z 2306/2406 05005KT CAVOK TX29/2319Z TN21/2406Z
Wind Visibility Clouds
50° at 5 knots 10,000+ meters
  • No significant clouds
Becoming Jan-23 @ 07:00 to Jan-23 @ 17:00
BECMG 2307/2309 12015KT 5000 TSRA BKN015 FEW040CB OVC050
Wind Visibility Clouds Conditions
120° at 15 knots 5,005 meters
  • Broken at 1,500' AGL
  • Few at 4,000' AGL
  • Overcast at 5,000' AGL
  • Thunderstorm
  • Rain
Temporary Jan-23 @ 10:00 to Jan-23 @ 14:00
TEMPO 2310/2314 1000 +TSRA
Visibility Conditions
998 meters
  • Heavy Thunderstorm
  • Heavy Rain
Becoming Jan-23 @ 17:00 to Jan-23 @ 20:00
BECMG 2317/2318 05010KT 9999 SCT010 BKN020
Wind Visibility Clouds Conditions
50° at 10 knots 10,000+ meters
  • Scattered at 1,000' AGL
  • Broken at 2,000' AGL
  • Thunderstorm
  • Rain
Becoming Jan-23 @ 20:00 to Jan-24 @ 06:00
BECMG 2320/2323 CAVOK
Wind Visibility Clouds Conditions
50° at 10 knots 10,000+ meters
  • No significant clouds
TAF SAAR 230555Z 2306/2406 05005KT CAVOK TX29/2319Z TN21/2406Z BECMG 2307/2309 12015KT 5000 TSRA BKN015 FEW040CB OVC050 TEMPO 2310/2314 1000 +TSRA BECMG 2317/2318 05010KT 9999 SCT010 BKN020 BECMG 2320/2323 CAVOK
Issued Jan-23 @ 05:55 UTC
(2 hours ago)
Valid From Jan-23 @ 06:00 UTC
(2 hours ago)
Valid To Jan-24 @ 06:00 UTC
(in 22 hours)
Jan-23 @ 06:00 - Jan-23 @ 07:00
Wind Visibility
50° at 5 knots 10,000+ meters
Clouds
  • No significant clouds
Becoming Jan-23 @ 07:00 - Jan-23 @ 17:00
Wind Visibility
120° at 15 knots 5,005 meters
Clouds
  • Broken at 1,500' AGL
  • Few at 4,000' AGL
  • Overcast at 5,000' AGL
Conditions
  • Thunderstorm
  • Rain
Temporary Jan-23 @ 10:00 - Jan-23 @ 14:00
Conditions
  • Heavy Thunderstorm
  • Heavy Rain
Becoming Jan-23 @ 17:00 - Jan-23 @ 20:00
Wind Visibility
50° at 10 knots 10,000+ meters
Clouds
  • Scattered at 1,000' AGL
  • Broken at 2,000' AGL
Conditions
  • Thunderstorm
  • Rain
Becoming Jan-23 @ 20:00 - Jan-24 @ 06:00
Wind Visibility
50° at 10 knots 10,000+ meters
Clouds
  • No significant clouds
Conditions